createdAt,value
2023-05-23T00:00:03.362Z,57.53
2023-05-23T00:02:29.793Z,57.97
2023-05-23T00:04:56.209Z,58.01
2023-05-23T00:07:22.581Z,57.80
2023-05-23T00:09:48.957Z,57.69
2023-05-23T00:12:15.337Z,57.66
2023-05-23T00:14:41.713Z,57.10
2023-05-23T00:17:08.221Z,56.61
2023-05-23T00:19:34.869Z,56.62
2023-05-23T00:22:01.390Z,56.54
2023-05-23T00:24:27.739Z,56.54
2023-05-23T00:26:54.148Z,56.69
2023-05-23T00:29:20.506Z,56.67
2023-05-23T00:31:47.236Z,56.10
2023-05-23T00:34:13.953Z,56.53
2023-05-23T00:36:40.374Z,56.05
2023-05-23T00:39:06.767Z,56.52
2023-05-23T00:41:33.138Z,57.10
2023-05-23T00:43:59.522Z,56.53
2023-05-23T00:46:25.936Z,56.84
2023-05-23T00:48:52.333Z,56.87
2023-05-23T00:51:18.706Z,57.11
2023-05-23T00:53:45.057Z,57.46
2023-05-23T00:56:11.421Z,56.49
2023-05-23T00:58:37.793Z,56.51
2023-05-23T01:01:04.179Z,56.65
2023-05-23T01:03:30.625Z,56.21
2023-05-23T01:05:57.041Z,56.21
2023-05-23T01:08:23.388Z,56.54
2023-05-23T01:10:49.727Z,56.53
2023-05-23T01:13:16.138Z,55.88
2023-05-23T01:15:42.782Z,55.73
2023-05-23T01:18:09.401Z,56.05
2023-05-23T01:20:35.792Z,56.43
2023-05-23T01:23:02.211Z,56.54
2023-05-23T01:25:28.593Z,57.23
2023-05-23T01:27:54.947Z,57.60
2023-05-23T01:30:21.337Z,57.48
2023-05-23T01:32:47.715Z,57.64
2023-05-23T01:35:14.088Z,57.67
2023-05-23T01:37:40.475Z,57.97
2023-05-23T01:40:06.850Z,57.95
2023-05-23T01:42:33.233Z,57.82
2023-05-23T01:44:59.768Z,57.29
2023-05-23T01:47:26.162Z,57.64
2023-05-23T01:49:52.541Z,57.96
2023-05-23T01:52:18.924Z,57.70
2023-05-23T01:54:45.328Z,58.06
2023-05-23T01:57:11.850Z,58.02
2023-05-23T01:59:38.262Z,58.38
2023-05-23T02:02:04.672Z,58.53
2023-05-23T02:04:31.087Z,58.80
2023-05-23T02:06:57.462Z,59.20
2023-05-23T02:09:23.832Z,59.16
2023-05-23T02:11:50.215Z,59.13
2023-05-23T02:14:16.592Z,58.73
2023-05-23T02:16:43.039Z,58.98
2023-05-23T02:19:09.432Z,58.05
2023-05-23T02:21:35.927Z,58.20
2023-05-23T02:24:02.295Z,58.64
2023-05-23T02:26:28.668Z,59.33
2023-05-23T02:28:55.061Z,59.57
2023-05-23T02:31:21.504Z,59.47
2023-05-23T02:33:47.957Z,59.62
2023-05-23T02:36:14.330Z,59.78
2023-05-23T02:38:40.715Z,59.60
2023-05-23T02:41:07.075Z,59.93
2023-05-23T02:43:33.449Z,60.14
2023-05-23T02:45:59.818Z,60.19
2023-05-23T02:48:26.200Z,59.99
2023-05-23T02:50:52.679Z,59.61
2023-05-23T02:53:19.050Z,60.18
2023-05-23T02:55:45.430Z,60.25
2023-05-23T02:58:11.795Z,60.04
2023-05-23T03:00:38.246Z,60.04
2023-05-23T03:03:04.826Z,59.74
2023-05-23T03:05:31.258Z,59.54
2023-05-23T03:07:57.603Z,60.16
2023-05-23T03:10:23.962Z,59.96
2023-05-23T03:12:50.317Z,59.98
2023-05-23T03:15:16.679Z,60.29
2023-05-23T03:17:43.062Z,60.52
2023-05-23T03:20:09.449Z,60.04
2023-05-23T03:22:35.790Z,60.13
2023-05-23T03:25:02.152Z,60.54
2023-05-23T03:27:28.518Z,60.58
2023-05-23T03:29:54.859Z,60.35
2023-05-23T03:32:21.238Z,60.72
2023-05-23T03:34:47.648Z,60.55
2023-05-23T03:37:13.989Z,60.50
2023-05-23T03:39:40.339Z,60.65
2023-05-23T03:42:06.697Z,60.83
2023-05-23T03:44:33.079Z,60.69
2023-05-23T03:46:59.428Z,60.46
2023-05-23T03:49:25.771Z,60.32
2023-05-23T03:51:52.116Z,60.84
2023-05-23T03:54:18.473Z,60.40
2023-05-23T03:56:44.816Z,60.81
2023-05-23T03:59:11.173Z,61.18
2023-05-23T04:01:37.521Z,61.17
2023-05-23T04:04:03.938Z,61.23
2023-05-23T04:06:30.389Z,61.19
2023-05-23T04:08:56.729Z,61.60
2023-05-23T04:11:24.100Z,61.47
2023-05-23T04:13:50.449Z,61.81
2023-05-23T04:16:16.911Z,62.30
2023-05-23T04:18:43.360Z,62.63
2023-05-23T04:21:09.756Z,62.55
2023-05-23T04:23:37.781Z,62.24
2023-05-23T04:26:04.181Z,62.67
2023-05-23T04:28:30.554Z,62.62
2023-05-23T04:30:56.960Z,63.35
2023-05-23T04:33:23.533Z,63.52
2023-05-23T04:35:49.885Z,63.59
2023-05-23T04:38:16.232Z,63.12
2023-05-23T04:40:42.617Z,62.85
2023-05-23T04:43:08.990Z,62.52
2023-05-23T04:45:35.342Z,62.12
2023-05-23T04:48:01.748Z,61.09
2023-05-23T04:50:28.138Z,61.83
2023-05-23T04:52:54.528Z,61.85
2023-05-23T04:55:21.052Z,61.67
2023-05-23T04:57:47.433Z,61.54
2023-05-23T05:00:13.802Z,61.65
2023-05-23T05:02:40.178Z,61.79
2023-05-23T05:05:06.549Z,62.31
2023-05-23T05:07:32.934Z,61.87
2023-05-23T05:10:01.055Z,61.52
2023-05-23T05:12:27.814Z,62.00
2023-05-23T05:14:54.234Z,62.03
2023-05-23T05:17:20.659Z,61.85
2023-05-23T05:19:47.092Z,61.93
2023-05-23T05:22:13.483Z,61.72
2023-05-23T05:24:39.856Z,61.87
2023-05-23T05:27:06.229Z,62.23
2023-05-23T05:29:32.645Z,62.24
2023-05-23T05:31:59.005Z,62.09
2023-05-23T05:34:25.367Z,61.61
2023-05-23T05:36:51.846Z,61.60
2023-05-23T05:39:18.229Z,60.68
2023-05-23T05:41:44.606Z,60.98
2023-05-23T05:44:10.964Z,60.41
2023-05-23T05:46:37.394Z,59.41
2023-05-23T05:49:03.805Z,58.72
2023-05-23T05:51:30.180Z,58.01
2023-05-23T05:53:56.539Z,57.69
2023-05-23T05:56:22.933Z,58.38
2023-05-23T05:58:49.332Z,57.21
2023-05-23T06:01:15.697Z,57.92
2023-05-23T06:03:42.283Z,57.55
2023-05-23T06:06:08.820Z,57.03
2023-05-23T06:08:35.179Z,56.97
2023-05-23T06:11:01.541Z,57.05
2023-05-23T06:13:27.913Z,57.08
2023-05-23T06:15:54.449Z,57.07
2023-05-23T06:18:20.871Z,56.81
2023-05-23T06:20:47.232Z,57.19
2023-05-23T06:23:13.590Z,57.25
2023-05-23T06:25:39.951Z,56.70
2023-05-23T06:28:06.335Z,56.54
2023-05-23T06:30:32.692Z,57.08
2023-05-23T06:32:59.105Z,57.08
2023-05-23T06:35:25.502Z,57.55
2023-05-23T06:37:51.878Z,57.34
2023-05-23T06:40:18.249Z,57.53
2023-05-23T06:42:45.683Z,56.25
2023-05-23T06:45:13.727Z,56.61
2023-05-23T06:47:42.223Z,56.74
2023-05-23T06:50:08.658Z,55.97
2023-05-23T06:52:35.051Z,55.84
2023-05-23T06:55:01.489Z,56.15
2023-05-23T06:57:27.861Z,55.99
2023-05-23T06:59:54.252Z,55.57
2023-05-23T07:02:20.711Z,56.31
2023-05-23T07:04:47.090Z,56.77
2023-05-23T07:07:13.471Z,56.32
2023-05-23T07:09:39.837Z,56.69
2023-05-23T07:12:06.197Z,56.52
2023-05-23T07:14:32.549Z,55.79
2023-05-23T07:16:58.957Z,55.63
2023-05-23T07:19:25.448Z,56.18
2023-05-23T07:21:51.858Z,55.35
2023-05-23T07:24:18.241Z,55.23
2023-05-23T07:26:44.620Z,55.20
2023-05-23T07:29:11.002Z,54.88
2023-05-23T07:31:37.446Z,54.34
2023-05-23T07:34:03.877Z,54.51
2023-05-23T07:36:30.279Z,55.26
2023-05-23T07:38:56.663Z,55.23
2023-05-23T07:41:23.049Z,55.81
2023-05-23T07:43:49.406Z,54.73
2023-05-23T07:46:15.780Z,54.44
2023-05-23T07:48:42.153Z,53.57
2023-05-23T07:51:08.527Z,53.06
2023-05-23T07:53:34.922Z,53.99
2023-05-23T07:56:01.286Z,53.72
2023-05-23T07:58:27.643Z,53.56
2023-05-23T08:00:54.000Z,54.25
2023-05-23T08:03:20.569Z,53.70
2023-05-23T08:05:47.059Z,54.16
2023-05-23T08:08:13.423Z,54.10
2023-05-23T08:10:39.933Z,53.48
2023-05-23T08:13:06.396Z,52.54
2023-05-23T08:15:32.774Z,52.28
2023-05-23T08:17:59.232Z,53.40
2023-05-23T08:20:25.627Z,53.15
2023-05-23T08:22:52.022Z,52.97
2023-05-23T08:25:18.415Z,52.81
2023-05-23T08:27:44.785Z,52.93
2023-05-23T08:30:11.209Z,53.24
2023-05-23T08:32:37.682Z,53.02
2023-05-23T08:35:04.096Z,53.07
2023-05-23T08:37:30.487Z,53.16
2023-05-23T08:39:56.850Z,52.83
2023-05-23T08:42:23.261Z,53.74
2023-05-23T08:44:51.382Z,52.75
2023-05-23T08:47:18.004Z,52.37
2023-05-23T08:49:44.367Z,52.24
2023-05-23T08:52:10.736Z,52.06
2023-05-23T08:54:37.098Z,52.43
2023-05-23T08:57:03.555Z,52.67
2023-05-23T08:59:29.941Z,52.80
2023-05-23T09:01:56.453Z,52.09
2023-05-23T09:04:22.892Z,50.61
2023-05-23T09:06:49.252Z,50.52
2023-05-23T09:09:15.634Z,51.19
2023-05-23T09:11:42.000Z,51.76
2023-05-23T09:14:08.461Z,51.14
2023-05-23T09:16:35.027Z,50.44
2023-05-23T09:19:01.551Z,50.36
2023-05-23T09:21:27.929Z,51.32
2023-05-23T09:23:54.278Z,49.85
2023-05-23T09:26:20.642Z,49.64
2023-05-23T09:28:47.082Z,48.65
2023-05-23T09:31:13.516Z,48.88
2023-05-23T09:33:39.885Z,47.37
2023-05-23T09:36:06.267Z,46.64
2023-05-23T09:38:32.641Z,47.67
2023-05-23T09:40:59.024Z,47.87
2023-05-23T09:43:25.403Z,46.06
2023-05-23T09:45:51.844Z,46.48
2023-05-23T09:48:18.232Z,45.90
2023-05-23T09:50:44.585Z,46.22
2023-05-23T09:53:10.936Z,46.30
2023-05-23T09:55:37.338Z,46.39
2023-05-23T09:58:03.692Z,46.56
2023-05-23T10:00:30.070Z,46.17
2023-05-23T10:02:56.495Z,46.89
2023-05-23T10:05:22.859Z,46.89
2023-05-23T10:07:49.211Z,46.37
2023-05-23T10:10:15.578Z,45.89
2023-05-23T10:12:42.011Z,45.13
2023-05-23T10:15:08.392Z,45.70
2023-05-23T10:17:34.796Z,45.35
2023-05-23T10:20:01.202Z,45.08
2023-05-23T10:22:27.586Z,45.91
2023-05-23T10:24:53.951Z,46.50
2023-05-23T10:27:20.317Z,45.42
2023-05-23T10:29:46.698Z,44.33
2023-05-23T10:32:14.979Z,44.35
2023-05-23T10:34:41.389Z,45.18
2023-05-23T10:37:07.781Z,45.06
2023-05-23T10:39:34.202Z,45.92
2023-05-23T10:42:00.580Z,45.68
2023-05-23T10:44:26.951Z,42.99
2023-05-23T10:46:53.380Z,44.17
2023-05-23T10:49:19.814Z,45.23
2023-05-23T10:51:46.182Z,44.59
2023-05-23T10:54:12.556Z,44.94
2023-05-23T10:56:38.916Z,44.70
2023-05-23T10:59:05.289Z,43.68
2023-05-23T11:01:31.714Z,44.12
2023-05-23T11:03:58.208Z,44.24
2023-05-23T11:06:24.669Z,45.73
2023-05-23T11:08:51.034Z,45.20
2023-05-23T11:11:17.395Z,44.43
2023-05-23T11:13:43.768Z,44.31
2023-05-23T11:16:10.210Z,43.93
2023-05-23T11:18:36.583Z,44.49
2023-05-23T11:21:02.949Z,44.83
2023-05-23T11:23:29.313Z,43.67
2023-05-23T11:25:55.695Z,43.66
2023-05-23T11:28:22.170Z,42.46
2023-05-23T11:30:48.564Z,44.13
2023-05-23T11:33:15.020Z,43.48
2023-05-23T11:35:41.577Z,42.61
2023-05-23T11:38:08.003Z,41.48
2023-05-23T11:40:34.384Z,40.83
2023-05-23T11:43:00.775Z,43.32
2023-05-23T11:45:27.213Z,44.29
2023-05-23T11:47:53.639Z,43.19
2023-05-23T11:50:20.057Z,43.66
2023-05-23T11:52:46.450Z,43.65
2023-05-23T11:55:12.894Z,44.26
2023-05-23T11:57:39.247Z,43.28
2023-05-23T12:00:05.611Z,42.67
2023-05-23T12:02:32.020Z,43.56
2023-05-23T12:04:58.529Z,43.73
2023-05-23T12:07:24.961Z,43.08
2023-05-23T12:09:51.341Z,43.17
2023-05-23T12:12:17.721Z,43.98
2023-05-23T12:14:44.117Z,43.75
2023-05-23T12:17:10.494Z,42.45
2023-05-23T12:19:36.950Z,43.24
2023-05-23T12:22:03.412Z,43.88
2023-05-23T12:24:29.812Z,43.47
2023-05-23T12:26:56.187Z,43.08
2023-05-23T12:29:22.548Z,43.01
2023-05-23T12:31:49.015Z,41.58
2023-05-23T12:34:15.486Z,40.94
2023-05-23T12:36:48.626Z,40.27
2023-05-23T12:39:15.945Z,38.67
2023-05-23T12:41:42.320Z,39.39
2023-05-23T12:44:08.676Z,39.72
2023-05-23T12:46:35.118Z,39.30
2023-05-23T12:49:01.509Z,40.32
2023-05-23T12:51:27.883Z,38.48
2023-05-23T12:53:54.249Z,38.15
2023-05-23T12:56:20.659Z,38.94
2023-05-23T12:58:47.033Z,39.29
2023-05-23T13:01:13.434Z,38.22
2023-05-23T13:03:39.849Z,37.62
2023-05-23T13:06:06.257Z,37.52
2023-05-23T13:08:32.654Z,39.21
2023-05-23T13:10:59.048Z,38.29
2023-05-23T13:13:25.416Z,38.12
2023-05-23T13:15:51.980Z,37.12
2023-05-23T13:18:18.604Z,36.99
2023-05-23T13:20:45.100Z,37.57
2023-05-23T13:23:11.476Z,37.37
2023-05-23T13:25:37.871Z,37.30
2023-05-23T13:28:04.343Z,37.25
2023-05-23T13:30:30.720Z,38.15
2023-05-23T13:32:57.152Z,36.79
2023-05-23T13:35:23.571Z,37.27
2023-05-23T13:37:49.951Z,36.85
2023-05-23T13:40:16.311Z,34.94
2023-05-23T13:42:42.700Z,35.79
2023-05-23T13:45:09.049Z,35.89
2023-05-23T13:47:35.416Z,36.47
2023-05-23T13:50:01.802Z,36.38
2023-05-23T13:52:28.159Z,35.91
2023-05-23T13:54:54.527Z,36.70
2023-05-23T13:57:20.894Z,37.68
2023-05-23T13:59:47.254Z,37.46
2023-05-23T14:02:15.843Z,38.27
2023-05-23T14:04:42.252Z,37.90
2023-05-23T14:07:08.614Z,36.62
2023-05-23T14:09:35.019Z,36.17
2023-05-23T14:12:01.365Z,36.01
2023-05-23T14:14:27.719Z,35.84
2023-05-23T14:16:54.111Z,37.17
2023-05-23T14:19:20.547Z,35.00
2023-05-23T14:21:46.974Z,34.52
2023-05-23T14:24:13.382Z,33.65
2023-05-23T14:26:39.764Z,34.60
2023-05-23T14:29:06.137Z,33.92
2023-05-23T14:31:32.589Z,32.95
2023-05-23T14:34:01.549Z,33.88
2023-05-23T14:36:30.589Z,34.52
2023-05-23T14:38:57.038Z,35.27
2023-05-23T14:41:23.401Z,34.31
2023-05-23T14:43:49.799Z,33.71
2023-05-23T14:46:16.209Z,33.11
2023-05-23T14:48:42.627Z,33.66
2023-05-23T14:51:08.987Z,33.72
2023-05-23T14:53:35.380Z,33.32
2023-05-23T14:56:01.753Z,34.03
2023-05-23T14:58:28.123Z,34.91
2023-05-23T15:00:54.591Z,35.21
2023-05-23T15:03:21.133Z,34.11
2023-05-23T15:05:48.952Z,35.03
2023-05-23T15:08:15.899Z,36.12
2023-05-23T15:10:42.369Z,35.53
2023-05-23T15:13:08.856Z,35.34
2023-05-23T15:15:35.330Z,35.44
2023-05-23T15:18:01.759Z,35.88
2023-05-23T15:20:28.177Z,35.61
2023-05-23T15:22:54.555Z,35.18
2023-05-23T15:25:33.932Z,35.85
2023-05-23T15:28:07.434Z,36.16
2023-05-23T15:30:33.781Z,37.05
2023-05-23T15:33:01.766Z,37.39
2023-05-23T15:35:28.341Z,36.88
2023-05-23T15:37:54.718Z,36.95
2023-05-23T15:40:22.490Z,37.54
2023-05-23T15:42:48.870Z,38.33
2023-05-23T15:45:15.250Z,38.02
2023-05-23T15:47:41.688Z,38.35
2023-05-23T15:50:08.096Z,38.66
2023-05-23T15:52:34.474Z,38.92
2023-05-23T15:55:00.847Z,38.93
2023-05-23T15:57:27.233Z,39.85
2023-05-23T16:00:01.024Z,39.73
2023-05-23T16:02:27.448Z,40.23
2023-05-23T16:04:53.895Z,40.72
2023-05-23T16:07:27.548Z,40.61
2023-05-23T16:09:53.927Z,41.09
2023-05-23T16:12:20.292Z,40.80
2023-05-23T16:14:46.678Z,41.32
2023-05-23T16:17:13.078Z,40.70
2023-05-23T16:19:39.545Z,41.58
2023-05-23T16:22:05.952Z,41.69
2023-05-23T16:24:32.334Z,41.62
2023-05-23T16:26:58.781Z,41.87
2023-05-23T16:29:25.175Z,42.26
2023-05-23T16:31:51.563Z,42.77
2023-05-23T16:34:17.975Z,42.90
2023-05-23T16:36:44.507Z,42.97
2023-05-23T16:39:10.881Z,43.40
2023-05-23T16:41:37.266Z,43.57
2023-05-23T16:44:03.625Z,43.63
2023-05-23T16:46:30.030Z,43.14
2023-05-23T16:48:56.485Z,44.39
2023-05-23T16:51:22.873Z,45.14
2023-05-23T16:53:49.263Z,45.29
2023-05-23T16:56:15.655Z,45.29
2023-05-23T16:58:42.027Z,45.64
2023-05-23T17:01:08.533Z,45.69
2023-05-23T17:03:35.134Z,45.62
2023-05-23T17:06:01.587Z,45.71
2023-05-23T17:08:27.960Z,46.15
2023-05-23T17:10:54.322Z,45.44
2023-05-23T17:13:20.712Z,46.11
2023-05-23T17:15:47.127Z,45.86
2023-05-23T17:18:13.521Z,45.75
2023-05-23T17:20:39.923Z,44.90
2023-05-23T17:23:06.296Z,44.28
2023-05-23T17:25:32.661Z,44.10
2023-05-23T17:27:59.023Z,44.50
2023-05-23T17:30:25.398Z,45.00
2023-05-23T17:32:51.796Z,44.83
2023-05-23T17:35:18.233Z,44.65
2023-05-23T17:37:44.607Z,44.24
2023-05-23T17:40:11.001Z,44.16
2023-05-23T17:42:37.385Z,44.80
2023-05-23T17:45:03.785Z,45.00
2023-05-23T17:47:30.193Z,44.97
2023-05-23T17:49:56.607Z,45.03
2023-05-23T17:52:23.022Z,45.06
2023-05-23T17:54:49.405Z,44.47
2023-05-23T17:57:15.758Z,44.81
2023-05-23T17:59:42.168Z,44.75
2023-05-23T18:02:08.523Z,45.55
2023-05-23T18:04:35.021Z,45.17
2023-05-23T18:07:01.516Z,45.95
2023-05-23T18:09:27.905Z,45.78
2023-05-23T18:11:54.272Z,45.36
2023-05-23T18:14:20.694Z,45.16
2023-05-23T18:16:47.106Z,45.73
2023-05-23T18:19:13.549Z,45.10
2023-05-23T18:21:39.918Z,45.49
2023-05-23T18:24:06.293Z,45.00
2023-05-23T18:26:32.662Z,45.34
2023-05-23T18:28:59.050Z,45.02
2023-05-23T18:31:25.414Z,44.78
2023-05-23T18:33:51.856Z,44.54
2023-05-23T18:36:18.260Z,44.75
2023-05-23T18:38:44.740Z,44.73
2023-05-23T18:41:13.292Z,44.97
2023-05-23T18:43:41.051Z,44.76
2023-05-23T18:46:07.474Z,45.54
2023-05-23T18:48:35.789Z,45.25
2023-05-23T18:51:02.493Z,45.61
2023-05-23T18:53:28.855Z,45.97
2023-05-23T18:55:55.243Z,46.13
2023-05-23T18:58:21.623Z,46.09
2023-05-23T19:00:47.993Z,46.10
2023-05-23T19:03:14.463Z,45.72
2023-05-23T19:05:40.944Z,45.80
2023-05-23T19:08:07.416Z,46.38
2023-05-23T19:10:33.797Z,46.27
2023-05-23T19:13:00.186Z,46.15
2023-05-23T19:15:26.545Z,46.74
2023-05-23T19:17:52.939Z,46.14
2023-05-23T19:20:19.320Z,46.60
2023-05-23T19:22:51.496Z,46.59
2023-05-23T19:25:18.782Z,46.71
2023-05-23T19:27:45.138Z,46.33
2023-05-23T19:30:11.546Z,46.25
2023-05-23T19:32:38.019Z,46.72
2023-05-23T19:35:04.564Z,47.17
2023-05-23T19:37:30.950Z,47.61
2023-05-23T19:39:57.301Z,47.67
2023-05-23T19:42:23.684Z,47.63
2023-05-23T19:44:50.065Z,47.70
2023-05-23T19:47:16.449Z,47.58
2023-05-23T19:49:42.814Z,47.78
2023-05-23T19:52:09.171Z,47.62
2023-05-23T19:54:35.565Z,48.60
2023-05-23T19:57:01.950Z,48.63
2023-05-23T19:59:28.329Z,48.75
2023-05-23T20:01:54.759Z,48.94
2023-05-23T20:04:21.149Z,48.83
2023-05-23T20:06:47.508Z,48.79
2023-05-23T20:09:13.898Z,48.83
2023-05-23T20:11:40.248Z,48.53
2023-05-23T20:14:06.661Z,48.55
2023-05-23T20:16:33.126Z,48.51
2023-05-23T20:18:59.539Z,48.47
2023-05-23T20:21:25.969Z,48.55
2023-05-23T20:23:52.362Z,48.46
2023-05-23T20:26:18.748Z,48.34
2023-05-23T20:28:45.127Z,48.21
2023-05-23T20:31:11.544Z,48.43
2023-05-23T20:33:37.918Z,48.17
2023-05-23T20:36:04.282Z,48.25
2023-05-23T20:38:30.639Z,48.13
2023-05-23T20:40:57.009Z,48.48
2023-05-23T20:43:23.380Z,48.95
2023-05-23T20:45:49.740Z,48.95
2023-05-23T20:48:16.155Z,48.72
2023-05-23T20:50:42.797Z,49.26
2023-05-23T20:53:09.373Z,48.55
2023-05-23T20:55:35.760Z,48.70
2023-05-23T20:58:02.136Z,48.84
2023-05-23T21:00:28.490Z,48.91
2023-05-23T21:02:54.944Z,49.66
2023-05-23T21:05:21.357Z,48.97
2023-05-23T21:07:47.733Z,49.34
2023-05-23T21:10:14.101Z,49.40
2023-05-23T21:12:40.482Z,49.93
2023-05-23T21:15:06.842Z,49.42
2023-05-23T21:17:33.218Z,49.80
2023-05-23T21:19:59.612Z,49.83
2023-05-23T21:22:25.977Z,50.02
2023-05-23T21:24:52.340Z,50.21
2023-05-23T21:27:18.701Z,50.55
2023-05-23T21:29:45.092Z,51.15
2023-05-23T21:32:11.449Z,51.00
2023-05-23T21:34:37.823Z,51.07
2023-05-23T21:37:04.192Z,51.14
2023-05-23T21:39:42.992Z,51.63
2023-05-23T21:42:16.815Z,51.52
2023-05-23T21:44:43.180Z,51.79
2023-05-23T21:47:09.548Z,51.37
2023-05-23T21:49:35.929Z,51.43
2023-05-23T21:52:02.281Z,51.17
2023-05-23T21:54:28.656Z,51.15
2023-05-23T21:56:55.076Z,50.87
2023-05-23T21:59:21.446Z,51.22
2023-05-23T22:01:47.822Z,51.07
2023-05-23T22:04:14.196Z,50.89
2023-05-23T22:06:40.561Z,50.62
2023-05-23T22:09:06.925Z,50.26
2023-05-23T22:11:33.307Z,50.18
2023-05-23T22:13:59.682Z,50.41
2023-05-23T22:16:26.127Z,50.20
2023-05-23T22:18:52.529Z,50.52
2023-05-23T22:21:18.919Z,51.01
2023-05-23T22:23:45.298Z,51.44
2023-05-23T22:26:11.681Z,51.73
2023-05-23T22:28:38.066Z,51.91
2023-05-23T22:31:04.507Z,51.97
2023-05-23T22:33:30.915Z,52.00
2023-05-23T22:35:57.272Z,52.20
2023-05-23T22:38:23.653Z,52.34
2023-05-23T22:40:50.028Z,52.24
2023-05-23T22:43:16.399Z,52.12
2023-05-23T22:45:42.805Z,52.31
2023-05-23T22:48:09.195Z,52.35
2023-05-23T22:50:35.632Z,52.67
2023-05-23T22:53:01.986Z,52.82
2023-05-23T22:55:28.352Z,52.83
2023-05-23T22:57:54.708Z,53.43
2023-05-23T23:00:21.086Z,53.02
2023-05-23T23:02:47.540Z,53.36
2023-05-23T23:05:13.978Z,53.26
2023-05-23T23:07:40.368Z,53.65
2023-05-23T23:10:06.735Z,53.92
2023-05-23T23:12:33.101Z,54.06
2023-05-23T23:14:59.482Z,54.44
2023-05-23T23:17:25.877Z,53.98
2023-05-23T23:19:52.241Z,53.95
2023-05-23T23:22:18.624Z,54.42
2023-05-23T23:24:45.047Z,53.84
2023-05-23T23:27:11.433Z,53.71
2023-05-23T23:29:37.797Z,53.83
2023-05-23T23:32:04.143Z,54.40
2023-05-23T23:34:30.535Z,54.42
2023-05-23T23:36:56.937Z,54.92
2023-05-23T23:39:23.307Z,54.55
2023-05-23T23:41:49.660Z,54.99
2023-05-23T23:44:16.008Z,55.24
2023-05-23T23:46:42.434Z,55.13
2023-05-23T23:49:08.799Z,55.27
2023-05-23T23:51:35.145Z,55.48
2023-05-23T23:54:01.513Z,55.55
2023-05-23T23:56:27.878Z,55.88
2023-05-23T23:58:54.275Z,55.97
